Raven, Kentucky
Current Conditions -  °F | °C
As of 9:35 AM on Friday 24 Oct 2014 (Local Time) from KPBX Reporting Station
Moderate Fog Moderate Fog  
Wind Chill: 38°   Ceiling: 200
Heat Index: 41°   Visibility: 0mi
Dew Point: 40°   Wind: 5mph
Humidity: 99%   Direction: 180°S
Pressure: 30.14"   Gusts: NA
Location:  37.41°N, 82.8°W
Report Text: KPBX 241335Z AUTO 18004KT M1/4SM FG OVC002 05/05 A3014 RMK AO2 T00480047
Loading
Personal Weather Stations






























Interactive Weather Map New forecast layout! Learn more

10-Day Weather Forecast

Advertisements
Track Severe Weather on mobile